createdAt,value
2018-01-22T00:01:45.820Z,11.90
2018-01-22T00:04:14.052Z,19.13
2018-01-22T00:06:41.527Z,13.90
2018-01-22T00:09:08.998Z,10.60
2018-01-22T00:11:36.462Z,8.60
2018-01-22T00:14:03.926Z,8.53
2018-01-22T00:16:32.161Z,7.40
2018-01-22T00:18:59.614Z,9.27
2018-01-22T00:21:27.090Z,8.10
2018-01-22T00:23:54.558Z,7.33
2018-01-22T00:26:22.023Z,8.30
2018-01-22T00:28:49.504Z,6.10
2018-01-22T00:31:17.743Z,5.20
2018-01-22T00:33:45.215Z,4.40
2018-01-22T00:36:12.690Z,5.77
2018-01-22T00:38:40.918Z,3.80
2018-01-22T00:41:08.387Z,3.80
2018-01-22T00:43:35.833Z,2.80
2018-01-22T00:46:03.294Z,3.33
2018-01-22T00:48:31.528Z,3.30
2018-01-22T00:50:58.982Z,2.93
2018-01-22T00:53:26.481Z,3.83
2018-01-22T00:55:53.949Z,4.60
2018-01-22T00:58:21.461Z,5.03
2018-01-22T01:00:48.938Z,4.60
2018-01-22T01:03:16.422Z,5.17
2018-01-22T01:05:43.897Z,5.20
2018-01-22T01:08:11.386Z,7.10
2018-01-22T01:10:47.470Z,7.20
2018-01-22T01:13:14.953Z,5.17
2018-01-22T01:15:42.421Z,6.37
2018-01-22T01:18:11.401Z,5.27
2018-01-22T01:20:38.870Z,5.37
2018-01-22T01:23:06.336Z,5.30
2018-01-22T01:25:33.794Z,6.00
2018-01-22T01:28:01.266Z,4.50
2018-01-22T01:30:28.737Z,5.47
2018-01-22T01:32:56.965Z,4.97
2018-01-22T01:35:24.468Z,4.30
2018-01-22T01:37:52.305Z,4.77
2018-01-22T01:40:19.765Z,4.90
2018-01-22T01:42:47.231Z,4.87
2018-01-22T01:45:14.710Z,3.17
2018-01-22T01:47:43.800Z,3.90
2018-01-22T01:50:11.254Z,4.07
2018-01-22T01:52:38.721Z,4.03
2018-01-22T01:55:06.933Z,3.17
2018-01-22T01:57:34.408Z,2.10
2018-01-22T02:00:01.866Z,1.83
2018-01-22T02:02:29.340Z,2.40
2018-01-22T02:04:56.796Z,1.77
2018-01-22T02:07:24.255Z,2.00
2018-01-22T02:09:51.721Z,2.00
2018-01-22T02:12:19.202Z,1.50
2018-01-22T02:14:46.652Z,1.80
2018-01-22T02:17:14.118Z,1.73
2018-01-22T02:19:42.345Z,1.70
2018-01-22T02:22:09.892Z,1.80
2018-01-22T02:24:37.337Z,2.10
2018-01-22T02:27:04.833Z,1.90
2018-01-22T02:29:32.290Z,2.97
2018-01-22T02:31:59.734Z,1.30
2018-01-22T02:34:27.201Z,2.33
2018-01-22T02:36:54.658Z,3.10
2018-01-22T02:39:22.126Z,2.70
2018-01-22T02:41:49.573Z,1.90
2018-01-22T02:44:17.815Z,2.43
2018-01-22T02:46:46.031Z,2.50
2018-01-22T02:49:13.501Z,3.50
2018-01-22T02:51:40.962Z,2.87
2018-01-22T02:54:08.446Z,2.70
2018-01-22T02:56:35.903Z,2.30
2018-01-22T02:59:04.134Z,3.00
2018-01-22T03:01:31.593Z,2.43
2018-01-22T03:03:59.063Z,2.20
2018-01-22T03:06:26.530Z,2.00
2018-01-22T03:08:54.008Z,1.97
2018-01-22T03:11:21.522Z,1.57
2018-01-22T03:13:48.977Z,1.80
2018-01-22T03:16:16.442Z,1.60
2018-01-22T03:18:43.926Z,1.50
2018-01-22T03:21:11.387Z,1.60
2018-01-22T03:23:38.857Z,1.57
2018-01-22T03:26:06.324Z,1.67
2018-01-22T03:28:34.591Z,1.70
2018-01-22T03:31:02.110Z,1.60
2018-01-22T03:33:29.569Z,2.13
2018-01-22T03:35:57.053Z,1.53
2018-01-22T03:38:24.506Z,1.27
2018-01-22T03:40:51.992Z,1.50
2018-01-22T03:43:20.212Z,1.27
2018-01-22T03:45:47.664Z,1.30
2018-01-22T03:48:15.129Z,1.30
2018-01-22T03:50:42.586Z,1.53
2018-01-22T03:53:10.067Z,1.63
2018-01-22T03:55:37.512Z,1.50
2018-01-22T03:58:04.978Z,1.43
2018-01-22T04:00:32.425Z,1.20
2018-01-22T04:02:59.886Z,1.60
2018-01-22T04:05:27.350Z,1.80
2018-01-22T04:07:54.814Z,1.60
2018-01-22T04:10:22.262Z,1.80
2018-01-22T04:12:50.529Z,1.40
2018-01-22T04:15:18.003Z,2.13
2018-01-22T04:17:45.858Z,1.60
2018-01-22T04:20:13.314Z,1.73
2018-01-22T04:22:40.781Z,1.93
2018-01-22T04:25:08.269Z,2.10
2018-01-22T04:27:35.745Z,1.70
2018-01-22T04:30:03.995Z,2.33
2018-01-22T04:32:31.457Z,2.00
2018-01-22T04:34:58.968Z,1.70
2018-01-22T04:37:26.420Z,1.83
2018-01-22T04:39:53.879Z,1.97
2018-01-22T04:42:21.345Z,1.70
2018-01-22T04:44:48.848Z,3.23
2018-01-22T04:47:16.318Z,2.10
2018-01-22T04:49:43.785Z,2.90
2018-01-22T04:52:11.260Z,2.50
2018-01-22T04:54:39.485Z,2.70
2018-01-22T04:57:06.949Z,2.57
2018-01-22T04:59:34.400Z,2.80
2018-01-22T05:02:01.867Z,3.53
2018-01-22T05:04:29.335Z,3.47
2018-01-22T05:06:56.793Z,3.00
2018-01-22T05:09:24.261Z,3.93
2018-01-22T05:11:51.724Z,4.07
2018-01-22T05:14:19.177Z,4.97
2018-01-22T05:16:46.654Z,4.47
2018-01-22T05:19:15.043Z,4.90
2018-01-22T05:21:43.734Z,4.20
2018-01-22T05:24:11.359Z,5.10
2018-01-22T05:26:38.824Z,6.40
2018-01-22T05:29:07.071Z,5.87
2018-01-22T05:31:34.535Z,6.67
2018-01-22T05:34:02.005Z,6.50
2018-01-22T05:36:29.466Z,6.50
2018-01-22T05:38:56.927Z,7.40
2018-01-22T05:41:24.379Z,7.70
2018-01-22T05:43:51.842Z,11.67
2018-01-22T05:46:19.293Z,9.50
2018-01-22T05:48:46.797Z,10.10
2018-01-22T05:51:14.303Z,9.30
2018-01-22T05:53:41.778Z,10.87
2018-01-22T05:56:09.262Z,12.07
2018-01-22T05:58:36.913Z,12.77
2018-01-22T06:01:05.166Z,11.90
2018-01-22T06:03:32.657Z,11.90
2018-01-22T06:06:00.907Z,12.33
2018-01-22T06:08:28.382Z,13.00
2018-01-22T06:10:56.638Z,14.37
2018-01-22T06:13:24.104Z,16.07
2018-01-22T06:15:51.575Z,17.23
2018-01-22T06:18:19.799Z,18.13
2018-01-22T06:20:47.311Z,17.30
2018-01-22T06:23:15.536Z,20.87
2018-01-22T06:25:43.046Z,16.60
2018-01-22T06:28:11.279Z,20.40
2018-01-22T06:30:38.807Z,21.57
2018-01-22T06:33:06.240Z,21.90
2018-01-22T06:35:34.478Z,22.73
2018-01-22T06:38:01.956Z,20.70
2018-01-22T06:40:29.423Z,23.00
2018-01-22T06:42:56.912Z,23.90
2018-01-22T06:45:24.379Z,22.97
2018-01-22T06:47:52.306Z,23.70
2018-01-22T06:50:19.774Z,22.17
2018-01-22T06:52:48.019Z,22.87
2018-01-22T06:55:15.501Z,25.07
2018-01-22T06:57:43.259Z,24.83
2018-01-22T07:00:10.769Z,23.77
2018-01-22T07:02:38.226Z,24.67
2018-01-22T07:05:05.732Z,26.40
2018-01-22T07:07:33.218Z,27.77
2018-01-22T07:10:01.463Z,29.03
2018-01-22T07:12:28.923Z,28.40
2018-01-22T07:14:56.393Z,27.03
2018-01-22T07:17:23.868Z,29.30
2018-01-22T07:19:52.164Z,25.60
2018-01-22T07:22:19.615Z,28.97
2018-01-22T07:24:47.858Z,24.60
2018-01-22T07:27:15.333Z,29.40
2018-01-22T07:29:43.583Z,26.97
2018-01-22T07:32:11.070Z,26.90
2018-01-22T07:34:39.847Z,26.80
2018-01-22T07:37:07.305Z,27.50
2018-01-22T07:39:35.565Z,23.80
2018-01-22T07:42:03.066Z,25.37
2018-01-22T07:44:30.535Z,27.60
2018-01-22T07:46:58.059Z,29.00
2018-01-22T07:49:25.508Z,26.50
2018-01-22T07:51:53.761Z,27.87
2018-01-22T07:54:21.231Z,29.77
2018-01-22T07:56:48.715Z,28.20
2018-01-22T07:59:16.177Z,30.70
2018-01-22T08:01:44.424Z,27.67
2018-01-22T08:04:11.919Z,31.10
2018-01-22T08:06:40.187Z,31.90
2018-01-22T08:09:07.651Z,29.83
2018-01-22T08:11:35.922Z,25.87
2018-01-22T08:14:04.153Z,27.20
2018-01-22T08:16:31.932Z,28.50
2018-01-22T08:18:59.406Z,28.00
2018-01-22T08:21:26.926Z,32.10
2018-01-22T08:23:54.393Z,28.60
2018-01-22T08:26:21.891Z,27.60
2018-01-22T08:28:49.416Z,27.67
2018-01-22T08:31:16.890Z,27.20
2018-01-22T08:33:44.364Z,25.70
2018-01-22T08:36:11.818Z,29.93
2018-01-22T08:38:39.278Z,29.60
2018-01-22T08:41:06.742Z,27.20
2018-01-22T08:43:34.201Z,26.00
2018-01-22T08:46:02.426Z,23.40
2018-01-22T08:48:29.910Z,23.70
2018-01-22T08:50:57.374Z,22.80
2018-01-22T08:53:24.865Z,23.83
2018-01-22T08:55:53.101Z,21.77
2018-01-22T08:58:20.586Z,24.90
2018-01-22T09:00:48.050Z,23.90
2018-01-22T09:03:15.521Z,23.77
2018-01-22T09:05:43.771Z,21.87
2018-01-22T09:08:11.246Z,24.50
2018-01-22T09:10:38.730Z,22.20
2018-01-22T09:13:06.188Z,20.00
2018-01-22T09:15:33.683Z,22.97
2018-01-22T09:18:01.174Z,21.20
2018-01-22T09:20:28.641Z,18.37
2018-01-22T09:22:56.863Z,20.17
2018-01-22T09:25:24.339Z,20.07
2018-01-22T09:27:51.808Z,21.50
2018-01-22T09:30:19.281Z,21.77
2018-01-22T09:32:46.760Z,23.10
2018-01-22T09:35:14.985Z,20.30
2018-01-22T09:37:42.450Z,20.63
2018-01-22T09:40:09.978Z,20.87
2018-01-22T09:42:37.442Z,18.60
2018-01-22T09:45:04.910Z,19.10
2018-01-22T09:47:32.396Z,18.20
2018-01-22T09:49:59.876Z,19.10
2018-01-22T09:52:27.358Z,18.43
2018-01-22T09:54:55.585Z,15.67
2018-01-22T09:57:23.056Z,18.37
2018-01-22T09:59:50.514Z,14.40
2018-01-22T10:02:18.001Z,16.00
2018-01-22T10:04:46.249Z,15.57
2018-01-22T10:07:13.718Z,13.50
2018-01-22T10:09:41.179Z,15.17
2018-01-22T10:12:09.446Z,13.93
2018-01-22T10:14:36.905Z,15.17
2018-01-22T10:17:04.369Z,13.50
2018-01-22T10:19:31.844Z,14.50
2018-01-22T10:22:00.097Z,11.93
2018-01-22T10:24:27.579Z,16.37
2018-01-22T10:26:55.818Z,15.43
2018-01-22T10:29:23.281Z,13.73
2018-01-22T10:31:50.764Z,14.20
2018-01-22T10:34:18.996Z,13.23
2018-01-22T10:36:46.470Z,12.43
2018-01-22T10:39:13.940Z,13.47
2018-01-22T10:41:42.192Z,13.73
2018-01-22T10:44:09.667Z,13.60
2018-01-22T10:46:37.213Z,13.57
2018-01-22T10:49:04.714Z,12.50
2018-01-22T10:51:34.999Z,14.13
2018-01-22T10:54:02.471Z,11.37
2018-01-22T10:56:30.133Z,15.30
2018-01-22T10:58:58.389Z,11.80
2018-01-22T11:01:26.047Z,11.80
2018-01-22T11:03:53.522Z,13.50
2018-01-22T11:06:21.497Z,14.60
2018-01-22T11:08:49.857Z,11.33
2018-01-22T11:11:17.351Z,11.97
2018-01-22T11:13:44.818Z,12.37
2018-01-22T11:16:13.112Z,12.60
2018-01-22T11:18:41.408Z,10.90
2018-01-22T11:21:09.025Z,10.80
2018-01-22T11:23:36.779Z,10.53
2018-01-22T11:26:04.243Z,13.20
2018-01-22T11:28:31.723Z,11.77
2018-01-22T11:31:00.048Z,11.23
2018-01-22T11:33:28.815Z,10.60
2018-01-22T11:35:56.303Z,11.23
2018-01-22T11:38:23.829Z,9.60
2018-01-22T11:40:52.314Z,10.77
2018-01-22T11:43:19.784Z,11.23
2018-01-22T11:45:47.255Z,10.70
2018-01-22T11:48:14.841Z,12.53
2018-01-22T11:50:42.318Z,10.60
2018-01-22T11:53:10.041Z,10.10
2018-01-22T11:55:37.687Z,10.50
2018-01-22T11:58:05.158Z,11.80
2018-01-22T12:00:34.678Z,9.90
2018-01-22T12:03:02.246Z,10.10
2018-01-22T12:05:30.155Z,12.33
2018-01-22T12:07:58.595Z,11.73
2018-01-22T12:10:26.206Z,11.17
2018-01-22T12:12:53.817Z,11.00
2018-01-22T12:15:21.352Z,12.87
2018-01-22T12:17:48.908Z,13.20
2018-01-22T12:20:16.487Z,15.00
2018-01-22T12:22:44.053Z,12.93
2018-01-22T12:25:11.920Z,13.73
2018-01-22T12:27:39.422Z,13.70
2018-01-22T12:30:07.742Z,9.93
2018-01-22T12:32:35.210Z,10.90
2018-01-22T12:35:02.697Z,10.73
2018-01-22T12:37:30.927Z,9.67
2018-01-22T12:39:58.421Z,10.43
2018-01-22T12:42:26.555Z,9.90
2018-01-22T12:44:54.060Z,11.10
2018-01-22T12:47:21.792Z,8.63
2018-01-22T12:49:49.669Z,9.90
2018-01-22T12:52:17.442Z,9.50
2018-01-22T12:54:44.906Z,9.60
2018-01-22T12:57:12.689Z,9.43
2018-01-22T12:59:40.145Z,11.20
2018-01-22T13:02:07.620Z,10.93
2018-01-22T13:04:35.078Z,12.93
2018-01-22T13:07:03.324Z,11.60
2018-01-22T13:09:30.777Z,11.50
2018-01-22T13:11:58.258Z,11.67
2018-01-22T13:14:25.733Z,11.40
2018-01-22T13:16:53.255Z,12.20
2018-01-22T13:19:20.711Z,9.70
2018-01-22T13:21:48.164Z,9.40
2018-01-22T13:24:15.653Z,10.73
2018-01-22T13:26:43.108Z,11.00
2018-01-22T13:29:11.376Z,9.83
2018-01-22T13:31:38.853Z,7.83
2018-01-22T13:34:06.325Z,10.03
2018-01-22T13:36:34.549Z,9.00
2018-01-22T13:39:02.027Z,6.60
2018-01-22T13:41:29.601Z,6.57
2018-01-22T13:43:57.112Z,8.23
2018-01-22T13:46:24.606Z,7.00
2018-01-22T13:48:52.079Z,6.93
2018-01-22T13:51:19.582Z,6.90
2018-01-22T13:53:47.064Z,6.20
2018-01-22T13:56:14.522Z,7.10
2018-01-22T13:58:42.004Z,6.30
2018-01-22T14:01:09.645Z,6.10
2018-01-22T14:03:37.101Z,6.30
2018-01-22T14:06:05.090Z,6.57
2018-01-22T14:08:32.547Z,5.30
2018-01-22T14:11:00.048Z,6.90
2018-01-22T14:13:28.330Z,6.07
2018-01-22T14:15:56.703Z,4.80
2018-01-22T14:18:24.202Z,4.80
2018-01-22T14:20:51.735Z,4.80
2018-01-22T14:23:19.196Z,5.77
2018-01-22T14:25:46.674Z,5.40
2018-01-22T14:28:14.586Z,6.10
2018-01-22T14:30:42.234Z,5.70
2018-01-22T14:33:09.665Z,6.20
2018-01-22T14:35:37.134Z,7.27
2018-01-22T14:38:04.966Z,7.30
2018-01-22T14:40:32.462Z,7.97
2018-01-22T14:42:59.927Z,5.80
2018-01-22T14:45:27.417Z,7.93
2018-01-22T14:47:54.898Z,7.87
2018-01-22T14:50:23.243Z,6.60
2018-01-22T14:52:50.734Z,7.40
2018-01-22T14:55:18.240Z,6.30
2018-01-22T14:57:45.750Z,8.00
2018-01-22T15:00:14.063Z,6.70
2018-01-22T15:02:41.537Z,7.70
2018-01-22T15:05:09.066Z,7.50
2018-01-22T15:07:36.525Z,8.10
2018-01-22T15:10:04.009Z,7.97
2018-01-22T15:12:31.506Z,8.00
2018-01-22T15:14:59.965Z,7.40
2018-01-22T15:17:27.463Z,7.53
2018-01-22T15:19:55.122Z,7.23
2018-01-22T15:22:23.822Z,7.77
2018-01-22T15:24:51.306Z,8.40
2018-01-22T15:27:18.771Z,8.00
2018-01-22T15:29:46.862Z,8.40
2018-01-22T15:32:15.118Z,7.60
2018-01-22T15:34:43.008Z,9.90
2018-01-22T15:37:10.819Z,8.53
2018-01-22T15:39:38.399Z,10.10
2018-01-22T15:42:07.688Z,9.27
2018-01-22T15:44:35.195Z,9.63
2018-01-22T15:47:02.688Z,10.40
2018-01-22T15:49:30.909Z,10.60
2018-01-22T15:51:58.458Z,10.60
2018-01-22T15:54:26.799Z,10.90
2018-01-22T15:56:55.045Z,13.33
2018-01-22T15:59:22.535Z,12.97
2018-01-22T16:01:50.800Z,13.17
2018-01-22T16:04:18.285Z,14.23
2018-01-22T16:06:46.534Z,14.67
2018-01-22T16:09:14.027Z,15.57
2018-01-22T16:11:41.501Z,16.20
2018-01-22T16:14:08.993Z,16.43
2018-01-22T16:16:39.392Z,14.30
2018-01-22T16:19:06.902Z,13.10
2018-01-22T16:21:35.128Z,12.57
2018-01-22T16:24:02.610Z,10.60
2018-01-22T16:26:30.083Z,11.93
2018-01-22T16:28:57.554Z,10.70
2018-01-22T16:31:25.026Z,10.67
2018-01-22T16:33:53.282Z,12.10
2018-01-22T16:36:20.738Z,12.13
2018-01-22T16:38:48.246Z,10.77
2018-01-22T16:41:15.711Z,10.53
2018-01-22T16:43:43.186Z,11.53
2018-01-22T16:46:10.642Z,11.60
2018-01-22T16:48:38.106Z,12.10
2018-01-22T16:51:05.594Z,11.53
2018-01-22T16:53:33.086Z,10.80
2018-01-22T16:56:00.548Z,9.97
2018-01-22T16:58:28.007Z,9.87
2018-01-22T17:00:55.485Z,9.10
2018-01-22T17:03:22.946Z,11.30
2018-01-22T17:05:50.447Z,10.97
2018-01-22T17:08:17.951Z,10.17
2018-01-22T17:10:45.434Z,9.27
2018-01-22T17:13:13.537Z,8.63
2018-01-22T17:15:41.076Z,7.43
2018-01-22T17:18:11.100Z,8.10
2018-01-22T17:20:39.176Z,7.17
2018-01-22T17:23:06.634Z,7.20
2018-01-22T17:25:35.088Z,7.27
2018-01-22T17:28:03.390Z,8.70
2018-01-22T17:30:30.879Z,8.63
2018-01-22T17:32:59.838Z,7.00
2018-01-22T17:35:27.309Z,13.60
2018-01-22T17:37:56.003Z,8.00
2018-01-22T17:40:23.474Z,8.87
2018-01-22T17:42:51.908Z,7.93
2018-01-22T17:45:19.873Z,7.63
2018-01-22T17:47:48.382Z,9.00
2018-01-22T17:50:15.946Z,8.63
2018-01-22T17:52:43.444Z,8.47
2018-01-22T17:55:10.941Z,7.90
2018-01-22T17:57:38.513Z,8.10
2018-01-22T18:00:06.183Z,8.07
2018-01-22T18:02:33.944Z,8.07
2018-01-22T18:05:01.558Z,6.30
2018-01-22T18:07:29.792Z,7.10
2018-01-22T18:09:57.416Z,6.87
2018-01-22T18:12:25.017Z,6.73
2018-01-22T18:14:52.679Z,6.77
2018-01-22T18:17:20.184Z,6.53
2018-01-22T18:19:47.855Z,7.60
2018-01-22T18:22:15.412Z,6.80
2018-01-22T18:24:42.941Z,7.20
2018-01-22T18:27:11.179Z,6.83
2018-01-22T18:29:38.683Z,7.00
2018-01-22T18:32:06.931Z,7.90
2018-01-22T18:34:34.389Z,7.83
2018-01-22T18:37:01.979Z,10.43
2018-01-22T18:39:30.230Z,7.03
2018-01-22T18:41:57.701Z,8.10
2018-01-22T18:44:25.158Z,7.30
2018-01-22T18:46:52.638Z,7.50
2018-01-22T18:49:20.102Z,7.60
2018-01-22T18:51:47.611Z,7.10
2018-01-22T18:54:15.082Z,7.03
2018-01-22T18:56:42.547Z,9.20
2018-01-22T18:59:10.078Z,7.47
2018-01-22T19:01:37.555Z,8.00
2018-01-22T19:04:05.116Z,8.80
2018-01-22T19:06:32.660Z,10.23
2018-01-22T19:09:00.153Z,8.10
2018-01-22T19:11:28.410Z,7.50
2018-01-22T19:13:55.879Z,10.13
2018-01-22T19:16:23.353Z,10.20
2018-01-22T19:18:51.586Z,9.17
2018-01-22T19:21:19.329Z,8.77
2018-01-22T19:23:47.984Z,9.40
2018-01-22T19:26:16.764Z,9.23
2018-01-22T19:28:45.007Z,9.57
2018-01-22T19:31:12.574Z,10.40
2018-01-22T19:33:40.053Z,9.93
2018-01-22T19:36:07.832Z,9.00
2018-01-22T19:38:35.386Z,10.57
2018-01-22T19:41:03.622Z,10.93
2018-01-22T19:43:31.687Z,9.27
2018-01-22T19:45:59.233Z,8.17
2018-01-22T19:48:26.824Z,9.40
2018-01-22T19:50:54.321Z,9.83
2018-01-22T19:53:22.550Z,9.57
2018-01-22T19:55:50.036Z,8.90
2018-01-22T19:58:17.512Z,9.20
2018-01-22T20:00:45.095Z,9.63
2018-01-22T20:03:12.775Z,8.93
2018-01-22T20:05:40.593Z,6.93
2018-01-22T20:08:08.207Z,8.93
2018-01-22T20:10:35.683Z,8.70
2018-01-22T20:13:03.328Z,9.03
2018-01-22T20:15:31.740Z,8.77
2018-01-22T20:17:59.215Z,9.10
2018-01-22T20:20:27.741Z,8.00
2018-01-22T20:22:55.321Z,7.70
2018-01-22T20:25:22.940Z,6.80
2018-01-22T20:27:51.495Z,6.90
2018-01-22T20:30:18.968Z,8.20
2018-01-22T20:32:47.407Z,5.83
2018-01-22T20:35:16.313Z,6.40
2018-01-22T20:37:44.221Z,6.67
2018-01-22T20:40:12.474Z,6.20
2018-01-22T20:42:40.113Z,6.00
2018-01-22T20:45:07.751Z,7.10
2018-01-22T20:47:35.237Z,7.43
2018-01-22T20:50:02.704Z,7.53
2018-01-22T20:52:30.184Z,7.80
2018-01-22T20:54:58.429Z,8.40
2018-01-22T20:57:25.909Z,9.43
2018-01-22T20:59:53.366Z,8.90
2018-01-22T21:02:20.851Z,9.10
2018-01-22T21:04:49.114Z,9.57
2018-01-22T21:07:16.659Z,10.97
2018-01-22T21:09:44.141Z,11.77
2018-01-22T21:12:12.391Z,10.83
2018-01-22T21:14:39.870Z,12.00
2018-01-22T21:17:07.362Z,11.17
2018-01-22T21:19:34.834Z,11.67
2018-01-22T21:22:02.303Z,11.13
2018-01-22T21:24:29.774Z,12.23
2018-01-22T21:26:57.275Z,13.03
2018-01-22T21:29:25.522Z,11.90
2018-01-22T21:31:52.989Z,12.20
2018-01-22T21:34:20.479Z,12.27
2018-01-22T21:36:47.976Z,10.43
2018-01-22T21:39:15.457Z,11.30
2018-01-22T21:41:42.931Z,9.20
2018-01-22T21:44:11.178Z,10.80
2018-01-22T21:46:38.648Z,10.97
2018-01-22T21:49:06.131Z,9.23
2018-01-22T21:51:34.359Z,9.80
2018-01-22T21:54:01.846Z,11.60
2018-01-22T21:56:29.370Z,10.77
2018-01-22T21:58:56.833Z,9.60
2018-01-22T22:01:25.083Z,13.00
2018-01-22T22:03:52.554Z,10.83
2018-01-22T22:06:20.023Z,10.53
2018-01-22T22:08:47.534Z,9.67
2018-01-22T22:11:15.760Z,12.73
2018-01-22T22:13:43.288Z,12.80
2018-01-22T22:16:10.750Z,11.83
2018-01-22T22:18:38.217Z,12.73
2018-01-22T22:21:05.686Z,11.53
2018-01-22T22:23:33.191Z,11.90
2018-01-22T22:26:00.666Z,12.70
2018-01-22T22:28:28.143Z,14.30
2018-01-22T22:30:55.602Z,11.77
2018-01-22T22:33:23.076Z,10.80
2018-01-22T22:35:50.532Z,11.63
2018-01-22T22:38:18.013Z,13.00
2018-01-22T22:40:45.502Z,13.30
2018-01-22T22:43:12.992Z,10.57
2018-01-22T22:45:40.570Z,9.40
2018-01-22T22:48:08.090Z,10.80
2018-01-22T22:50:36.325Z,11.50
2018-01-22T22:53:03.789Z,12.30
2018-01-22T22:55:31.261Z,10.93
2018-01-22T22:57:58.742Z,11.17
2018-01-22T23:00:27.014Z,11.47
2018-01-22T23:02:55.308Z,14.40
2018-01-22T23:05:22.816Z,10.93
2018-01-22T23:07:50.303Z,11.77
2018-01-22T23:10:17.784Z,12.50
2018-01-22T23:12:45.253Z,16.13
2018-01-22T23:15:12.744Z,11.87
2018-01-22T23:17:41.329Z,11.73
2018-01-22T23:20:08.821Z,12.83
2018-01-22T23:22:36.322Z,13.40
2018-01-22T23:25:03.786Z,13.20
2018-01-22T23:27:31.272Z,14.07
2018-01-22T23:29:58.730Z,11.50
2018-01-22T23:32:26.214Z,13.00
2018-01-22T23:34:53.674Z,11.93
2018-01-22T23:37:21.192Z,11.87
2018-01-22T23:39:48.653Z,12.97
2018-01-22T23:42:16.272Z,12.20
2018-01-22T23:44:44.490Z,12.20
2018-01-22T23:47:11.967Z,11.83
2018-01-22T23:49:39.437Z,10.27
2018-01-22T23:52:06.913Z,12.50
2018-01-22T23:54:35.141Z,11.00
2018-01-22T23:57:02.599Z,11.13
2018-01-22T23:59:30.130Z,11.50
